createdAt,value
2023-05-12T00:00:22.202Z,64.28
2023-05-12T00:01:22.168Z,64.18
2023-05-12T00:02:22.229Z,64.09
2023-05-12T00:03:22.350Z,63.70
2023-05-12T00:04:22.299Z,63.70
2023-05-12T00:05:22.205Z,63.99
2023-05-12T00:06:22.217Z,64.09
2023-05-12T00:07:22.217Z,63.89
2023-05-12T00:08:22.222Z,63.89
2023-05-12T00:09:22.239Z,64.09
2023-05-12T00:10:22.274Z,63.99
2023-05-12T00:11:22.271Z,64.18
2023-05-12T00:12:22.293Z,63.96
2023-05-12T00:13:22.319Z,63.70
2023-05-12T00:14:22.278Z,63.57
2023-05-12T00:15:22.292Z,64.15
2023-05-12T00:16:22.336Z,63.96
2023-05-12T00:17:22.313Z,64.09
2023-05-12T00:18:22.341Z,64.05
2023-05-12T00:19:22.318Z,63.96
2023-05-12T00:20:22.530Z,64.47
2023-05-12T00:21:22.346Z,64.15
2023-05-12T00:23:22.362Z,64.15
2023-05-12T00:24:22.370Z,64.05
2023-05-12T00:25:22.374Z,63.67
2023-05-12T00:26:22.390Z,64.05
2023-05-12T00:27:22.412Z,64.15
2023-05-12T00:28:22.473Z,64.25
2023-05-12T00:29:22.403Z,64.34
2023-05-12T00:30:22.499Z,64.15
2023-05-12T00:31:22.463Z,64.34
2023-05-12T00:32:25.959Z,64.63
2023-05-12T00:33:22.451Z,64.25
2023-05-12T00:34:22.467Z,64.05
2023-05-12T00:35:22.468Z,64.53
2023-05-12T00:36:22.493Z,64.72
2023-05-12T00:37:22.477Z,64.53
2023-05-12T00:38:22.492Z,64.63
2023-05-12T00:39:22.507Z,64.63
2023-05-12T00:40:22.512Z,64.82
2023-05-12T00:41:22.520Z,64.82
2023-05-12T00:42:22.519Z,65.11
2023-05-12T00:43:22.534Z,64.53
2023-05-12T00:44:22.603Z,65.11
2023-05-12T00:45:22.548Z,65.11
2023-05-12T00:46:22.621Z,65.20
2023-05-12T00:47:22.576Z,65.20
2023-05-12T00:48:22.576Z,65.11
2023-05-12T00:49:22.606Z,64.89
2023-05-12T00:50:22.759Z,65.46
2023-05-12T00:51:22.625Z,65.55
2023-05-12T00:52:22.617Z,65.08
2023-05-12T00:53:22.619Z,65.26
2023-05-12T00:54:22.630Z,65.08
2023-05-12T00:55:22.634Z,65.26
2023-05-12T00:56:22.657Z,65.17
2023-05-12T00:57:22.659Z,65.08
2023-05-12T00:58:22.674Z,65.08
2023-05-12T00:59:22.683Z,65.26
2023-05-12T01:00:22.804Z,65.84
2023-05-12T01:01:22.768Z,65.36
2023-05-12T01:02:22.760Z,65.84
2023-05-12T01:03:22.800Z,66.03
2023-05-12T01:04:22.714Z,65.94
2023-05-12T01:05:22.717Z,65.94
2023-05-12T01:06:22.734Z,65.84
2023-05-12T01:07:22.741Z,65.84
2023-05-12T01:08:22.744Z,66.03
2023-05-12T01:09:22.764Z,65.84
2023-05-12T01:10:22.922Z,65.84
2023-05-12T01:11:22.778Z,66.42
2023-05-12T01:12:22.777Z,65.94
2023-05-12T01:13:22.784Z,65.84
2023-05-12T01:14:22.801Z,65.94
2023-05-12T01:15:22.801Z,65.84
2023-05-12T01:16:22.839Z,66.13
2023-05-12T01:17:22.857Z,66.61
2023-05-12T01:18:22.859Z,66.32
2023-05-12T01:19:22.841Z,66.51
2023-05-12T01:20:23.121Z,66.61
2023-05-12T01:21:22.854Z,66.42
2023-05-12T01:38:40.592Z,67.38
2023-05-12T02:14:38.694Z,70.95
2023-05-12T02:15:38.668Z,71.42
2023-05-12T02:16:38.815Z,71.33
2023-05-12T02:17:38.719Z,71.33
2023-05-12T02:18:38.721Z,71.42
2023-05-12T02:19:38.713Z,71.52
2023-05-12T02:20:38.707Z,71.33
2023-05-12T02:21:38.723Z,71.42
2023-05-12T02:22:38.729Z,71.81
2023-05-12T02:23:38.754Z,71.81
2023-05-12T02:24:38.748Z,71.71
2023-05-12T02:25:38.753Z,71.62
2023-05-12T02:26:38.764Z,71.62
2023-05-12T02:27:38.761Z,71.81
2023-05-12T02:28:38.786Z,71.62
2023-05-12T02:29:38.782Z,71.81
2023-05-12T02:30:38.812Z,71.62
2023-05-12T02:31:38.894Z,72.00
2023-05-12T02:32:38.827Z,72.09
2023-05-12T02:33:38.815Z,71.81
2023-05-12T02:34:38.828Z,72.09
2023-05-12T02:35:38.828Z,72.09
2023-05-12T02:36:38.854Z,71.91
2023-05-12T02:37:38.847Z,72.67
2023-05-12T02:38:38.872Z,72.48
2023-05-12T02:39:38.863Z,72.19
2023-05-12T02:40:38.881Z,72.48
2023-05-12T02:41:38.873Z,72.48
2023-05-12T02:42:38.891Z,72.48
2023-05-12T02:43:38.899Z,72.48
2023-05-12T02:44:38.904Z,72.67
2023-05-12T02:45:38.949Z,72.38
2023-05-12T02:46:38.954Z,72.19
2023-05-12T02:47:39.059Z,72.86
2023-05-12T02:48:38.935Z,72.77
2023-05-12T02:49:38.945Z,72.29
2023-05-12T02:50:38.956Z,72.58
2023-05-12T02:51:38.960Z,72.77
2023-05-12T02:52:38.968Z,72.48
2023-05-12T02:53:38.986Z,72.67
2023-05-12T02:54:38.989Z,72.86
2023-05-12T02:55:38.986Z,72.96
2023-05-12T02:56:39.010Z,72.38
2023-05-12T02:57:39.010Z,73.15
2023-05-12T02:58:39.025Z,73.05
2023-05-12T02:59:39.022Z,72.86
2023-05-12T03:00:39.030Z,73.05
2023-05-12T03:01:39.045Z,73.15
2023-05-12T03:02:39.137Z,73.05
2023-05-12T03:03:39.209Z,73.05
2023-05-12T03:04:39.058Z,73.24
2023-05-12T03:05:39.069Z,73.24
2023-05-12T03:06:39.085Z,73.72
2023-05-12T03:07:39.090Z,73.91
2023-05-12T03:08:39.127Z,73.63
2023-05-12T03:09:39.110Z,73.63
2023-05-12T03:10:39.106Z,74.01
2023-05-12T03:11:39.121Z,74.49
2023-05-12T03:12:39.134Z,74.20
2023-05-12T03:13:39.144Z,74.49
2023-05-12T03:14:39.136Z,74.58
2023-05-12T03:15:39.145Z,74.07
2023-05-12T03:16:39.199Z,74.16
2023-05-12T03:17:39.206Z,74.49
2023-05-12T03:18:39.232Z,74.68
2023-05-12T03:19:39.175Z,75.07
2023-05-12T03:20:39.188Z,74.87
2023-05-12T03:21:39.194Z,74.93
2023-05-12T03:22:39.210Z,74.45
2023-05-12T03:23:39.202Z,74.74
2023-05-12T03:24:39.230Z,74.74
2023-05-12T03:25:39.229Z,75.12
2023-05-12T03:26:39.246Z,75.22
2023-05-12T03:27:39.243Z,75.22
2023-05-12T03:28:39.255Z,75.31
2023-05-12T03:29:39.257Z,75.79
2023-05-12T03:30:39.265Z,75.51
2023-05-12T03:31:39.299Z,75.79
2023-05-12T03:32:39.356Z,75.89
2023-05-12T03:33:39.281Z,75.51
2023-05-12T03:34:39.327Z,75.70
2023-05-12T03:35:39.327Z,75.70
2023-05-12T03:36:39.308Z,75.70
2023-05-12T03:37:39.318Z,75.79
2023-05-12T03:38:39.327Z,75.79
2023-05-12T03:39:39.327Z,76.08
2023-05-12T03:40:39.340Z,76.27
2023-05-12T03:41:39.340Z,76.18
2023-05-12T03:42:39.358Z,76.27
2023-05-12T03:43:39.362Z,75.98
2023-05-12T03:44:39.374Z,76.18
2023-05-12T03:45:39.372Z,76.08
2023-05-12T03:46:39.477Z,76.18
2023-05-12T03:47:39.515Z,75.98
2023-05-12T03:48:39.405Z,75.89
2023-05-12T03:49:39.409Z,75.98
2023-05-12T03:50:39.432Z,76.08
2023-05-12T03:51:39.425Z,75.89
2023-05-12T03:52:39.432Z,75.93
2023-05-12T03:53:39.442Z,76.02
2023-05-12T03:54:39.447Z,76.21
2023-05-12T03:55:39.450Z,75.73
2023-05-12T03:56:39.467Z,75.93
2023-05-12T03:57:39.474Z,75.73
2023-05-12T03:58:39.479Z,75.45
2023-05-12T03:59:39.491Z,75.54
2023-05-12T04:00:39.496Z,75.73
2023-05-12T04:01:39.533Z,75.45
2023-05-12T04:02:39.685Z,75.45
2023-05-12T04:03:39.588Z,75.54
2023-05-12T04:04:39.530Z,75.83
2023-05-12T04:05:39.643Z,75.73
2023-05-12T04:06:39.570Z,75.73
2023-05-12T04:07:39.551Z,75.54
2023-05-12T04:08:41.855Z,75.45
2023-05-12T04:09:39.559Z,75.26
2023-05-12T04:10:39.567Z,75.26
2023-05-12T04:11:39.574Z,75.07
2023-05-12T04:12:39.626Z,75.07
2023-05-12T04:13:39.601Z,75.35
2023-05-12T04:14:43.183Z,75.16
2023-05-12T04:15:39.609Z,75.26
2023-05-12T04:16:39.682Z,74.87
2023-05-12T04:17:39.644Z,74.77
2023-05-12T04:18:39.668Z,74.68
2023-05-12T04:19:39.637Z,74.68
2023-05-12T04:20:39.645Z,74.77
2023-05-12T04:21:39.660Z,74.77
2023-05-12T04:22:39.695Z,74.77
2023-05-12T04:23:39.677Z,74.68
2023-05-12T04:24:39.680Z,74.77
2023-05-12T04:25:39.692Z,74.77
2023-05-12T04:26:39.699Z,74.77
2023-05-12T04:27:39.703Z,74.49
2023-05-12T04:28:39.718Z,74.58
2023-05-12T04:29:39.734Z,74.77
2023-05-12T04:30:39.739Z,74.77
2023-05-12T04:31:39.744Z,74.49
2023-05-12T04:32:39.841Z,74.68
2023-05-12T04:33:39.757Z,74.49
2023-05-12T04:34:39.759Z,74.49
2023-05-12T04:35:39.785Z,74.77
2023-05-12T04:36:39.782Z,74.40
2023-05-12T04:37:39.785Z,74.40
2023-05-12T04:38:39.930Z,74.30
2023-05-12T04:39:39.798Z,74.52
2023-05-12T04:40:39.817Z,74.72
2023-05-12T04:41:39.812Z,74.91
2023-05-12T04:42:39.838Z,75.10
2023-05-12T04:44:39.841Z,74.62
2023-05-12T04:45:39.876Z,74.62
2023-05-12T04:46:39.912Z,73.95
2023-05-12T04:47:39.890Z,74.24
2023-05-12T04:48:39.872Z,74.33
2023-05-12T04:49:39.881Z,74.43
2023-05-12T04:50:39.895Z,74.33
2023-05-12T04:51:39.901Z,74.33
2023-05-12T04:52:39.910Z,74.33
2023-05-12T04:53:39.918Z,74.24
2023-05-12T04:54:39.944Z,74.15
2023-05-12T04:55:39.938Z,73.86
2023-05-12T04:56:39.950Z,74.52
2023-05-12T04:57:39.953Z,73.95
2023-05-12T04:58:39.972Z,74.52
2023-05-12T04:59:41.323Z,74.33
2023-05-12T05:00:39.975Z,74.15
2023-05-12T05:01:40.056Z,74.24
2023-05-12T05:02:40.124Z,74.05
2023-05-12T05:03:40.168Z,73.66
2023-05-12T05:04:40.005Z,73.86
2023-05-12T05:05:40.019Z,73.95
2023-05-12T05:06:40.015Z,73.76
2023-05-12T05:07:40.037Z,74.05
2023-05-12T05:08:40.039Z,73.57
2023-05-12T05:09:40.048Z,73.32
2023-05-12T05:10:40.068Z,73.57
2023-05-12T05:11:40.057Z,73.61
2023-05-12T05:12:40.070Z,73.61
2023-05-12T05:13:40.074Z,73.32
2023-05-12T05:14:40.093Z,73.13
2023-05-12T05:15:40.114Z,73.32
2023-05-12T05:16:40.102Z,73.13
2023-05-12T05:17:40.244Z,73.22
2023-05-12T05:18:40.160Z,72.94
2023-05-12T05:19:52.894Z,73.13
2023-05-12T05:20:42.894Z,72.45
2023-05-12T05:21:40.151Z,72.45
2023-05-12T05:22:40.156Z,72.55
2023-05-12T05:23:40.154Z,72.55
2023-05-12T05:24:40.173Z,72.55
2023-05-12T05:25:40.182Z,72.36
2023-05-12T05:26:40.218Z,72.07
2023-05-12T05:27:40.198Z,72.11
2023-05-12T05:28:40.248Z,72.11
2023-05-12T05:29:40.214Z,72.20
2023-05-12T05:30:40.225Z,71.72
2023-05-12T05:31:40.246Z,71.69
2023-05-12T05:32:40.369Z,71.34
2023-05-12T05:33:40.257Z,71.72
2023-05-12T05:34:40.284Z,71.34
2023-05-12T05:35:40.324Z,71.15
2023-05-12T05:36:40.271Z,70.86
2023-05-12T05:37:40.288Z,71.15
2023-05-12T05:38:40.294Z,70.48
2023-05-12T05:39:40.296Z,70.57
2023-05-12T05:40:52.184Z,70.67
2023-05-12T05:59:36.006Z,69.26
2023-05-12T06:00:35.981Z,69.17
2023-05-12T06:01:36.008Z,69.17
2023-05-12T06:02:36.166Z,69.17
2023-05-12T06:03:36.060Z,69.07
2023-05-12T06:04:36.017Z,69.36
2023-05-12T06:05:36.037Z,68.79
2023-05-12T06:06:36.087Z,68.59
2023-05-12T06:07:36.068Z,68.69
2023-05-12T06:08:36.060Z,68.69
2023-05-12T06:09:36.068Z,68.40
2023-05-12T06:10:36.073Z,68.30
2023-05-12T06:11:36.080Z,68.59
2023-05-12T06:12:36.089Z,68.44
2023-05-12T06:13:36.102Z,67.86
2023-05-12T06:14:36.125Z,67.86
2023-05-12T06:15:36.141Z,68.34
2023-05-12T06:16:36.180Z,68.05
2023-05-12T06:17:36.155Z,68.05
2023-05-12T06:18:38.852Z,68.05
2023-05-12T06:19:36.150Z,67.86
2023-05-12T06:20:36.164Z,67.47
2023-05-12T06:21:36.171Z,67.38
2023-05-12T06:22:36.188Z,67.38
2023-05-12T06:23:36.230Z,67.00
2023-05-12T06:24:37.015Z,67.19
2023-05-12T06:25:36.226Z,66.71
2023-05-12T06:26:36.224Z,66.71
2023-05-12T06:27:36.226Z,66.64
2023-05-12T06:28:36.247Z,66.46
2023-05-12T06:30:18.796Z,66.64
2023-05-12T06:31:19.054Z,65.97
2023-05-12T06:32:18.846Z,66.36
2023-05-12T06:33:18.827Z,65.97
2023-05-12T06:34:18.836Z,66.07
2023-05-12T06:35:19.087Z,66.16
2023-05-12T06:36:18.860Z,65.88
2023-05-12T06:37:18.857Z,65.81
